sensor_id;sensor_type;location;lat;lon;timestamp;pressure;altitude;pressure_sealevel;temperature;humidity
53262;BME280;39658;51.090;-1.786;2023-05-19T00:01:28;102958.22;;;10.83;100.00
53262;BME280;39658;51.090;-1.786;2023-05-19T00:03:56;102953.84;;;10.82;100.00
53262;BME280;39658;51.090;-1.786;2023-05-19T00:06:28;102961.84;;;10.79;100.00
53262;BME280;39658;51.090;-1.786;2023-05-19T00:08:57;102967.16;;;10.77;100.00
53262;BME280;39658;51.090;-1.786;2023-05-19T00:11:24;102973.41;;;10.75;100.00
53262;BME280;39658;51.090;-1.786;2023-05-19T00:13:52;102977.81;;;10.74;100.00
53262;BME280;39658;51.090;-1.786;2023-05-19T00:16:22;102977.00;;;10.72;100.00
53262;BME280;39658;51.090;-1.786;2023-05-19T00:18:49;102979.69;;;10.71;100.00
53262;BME280;39658;51.090;-1.786;2023-05-19T00:21:18;102977.00;;;10.72;100.00
53262;BME280;39658;51.090;-1.786;2023-05-19T00:23:45;102979.66;;;10.72;100.00
53262;BME280;39658;51.090;-1.786;2023-05-19T00:26:11;102989.22;;;10.75;100.00
53262;BME280;39658;51.090;-1.786;2023-05-19T00:28:38;102984.78;;;10.77;100.00
53262;BME280;39658;51.090;-1.786;2023-05-19T00:31:05;102989.97;;;10.80;100.00
53262;BME280;39658;51.090;-1.786;2023-05-19T00:33:33;102991.63;;;10.83;100.00
53262;BME280;39658;51.090;-1.786;2023-05-19T00:36:00;102995.31;;;10.78;100.00
53262;BME280;39658;51.090;-1.786;2023-05-19T00:38:29;103001.44;;;10.79;100.00
53262;BME280;39658;51.090;-1.786;2023-05-19T00:40:56;102996.25;;;10.76;100.00
53262;BME280;39658;51.090;-1.786;2023-05-19T00:43:23;102986.69;;;10.72;100.00
53262;BME280;39658;51.090;-1.786;2023-05-19T00:45:50;102987.66;;;10.69;100.00
53262;BME280;39658;51.090;-1.786;2023-05-19T00:48:17;102982.44;;;10.68;100.00
53262;BME280;39658;51.090;-1.786;2023-05-19T00:50:45;102986.88;;;10.66;100.00
53262;BME280;39658;51.090;-1.786;2023-05-19T00:53:12;102973.72;;;10.64;100.00
53262;BME280;39658;51.090;-1.786;2023-05-19T00:55:40;102960.66;;;10.59;100.00
53262;BME280;39658;51.090;-1.786;2023-05-19T00:58:08;102962.59;;;10.54;100.00
53262;BME280;39658;51.090;-1.786;2023-05-19T01:00:36;102959.19;;;10.51;100.00
53262;BME280;39658;51.090;-1.786;2023-05-19T01:03:03;102954.06;;;10.46;100.00
53262;BME280;39658;51.090;-1.786;2023-05-19T01:05:37;102937.41;;;10.44;100.00
53262;BME280;39658;51.090;-1.786;2023-05-19T01:08:07;102922.50;;;10.43;100.00
53262;BME280;39658;51.090;-1.786;2023-05-19T01:10:34;102911.28;;;10.36;100.00
53262;BME280;39658;51.090;-1.786;2023-05-19T01:13:02;102899.91;;;10.34;100.00
53262;BME280;39658;51.090;-1.786;2023-05-19T01:15:29;102889.41;;;10.33;100.00
53262;BME280;39658;51.090;-1.786;2023-05-19T01:18:03;102885.06;;;10.30;100.00
53262;BME280;39658;51.090;-1.786;2023-05-19T01:20:35;102870.28;;;10.24;100.00
53262;BME280;39658;51.090;-1.786;2023-05-19T01:23:36;102871.19;;;10.23;100.00
53262;BME280;39658;51.090;-1.786;2023-05-19T01:26:18;102849.25;;;10.23;100.00
53262;BME280;39658;51.090;-1.786;2023-05-19T01:29:16;102835.22;;;10.22;100.00
53262;BME280;39658;51.090;-1.786;2023-05-19T01:31:48;102829.06;;;10.22;100.00
53262;BME280;39658;51.090;-1.786;2023-05-19T01:34:15;102815.06;;;10.20;100.00
53262;BME280;39658;51.090;-1.786;2023-05-19T01:36:43;102805.41;;;10.19;100.00
53262;BME280;39658;51.090;-1.786;2023-05-19T01:39:13;102794.97;;;10.16;100.00
53262;BME280;39658;51.090;-1.786;2023-05-19T01:41:41;102780.94;;;10.15;100.00
53262;BME280;39658;51.090;-1.786;2023-05-19T01:44:10;102767.81;;;10.14;100.00
53262;BME280;39658;51.090;-1.786;2023-05-19T01:46:37;102759.00;;;10.15;100.00
53262;BME280;39658;51.090;-1.786;2023-05-19T01:49:06;102749.34;;;10.14;100.00
53262;BME280;39658;51.090;-1.786;2023-05-19T01:51:33;102745.88;;;10.13;100.00
53262;BME280;39658;51.090;-1.786;2023-05-19T01:54:01;102732.69;;;10.13;100.00
53262;BME280;39658;51.090;-1.786;2023-05-19T01:56:37;102731.94;;;10.08;100.00
53262;BME280;39658;51.090;-1.786;2023-05-19T01:59:17;102723.19;;;10.07;100.00
53262;BME280;39658;51.090;-1.786;2023-05-19T02:01:52;102724.09;;;10.06;100.00
53262;BME280;39658;51.090;-1.786;2023-05-19T02:04:26;102717.06;;;10.07;100.00
53262;BME280;39658;51.090;-1.786;2023-05-19T02:07:00;102715.34;;;10.06;100.00
53262;BME280;39658;51.090;-1.786;2023-05-19T02:09:37;102692.84;;;9.94;100.00
53262;BME280;39658;51.090;-1.786;2023-05-19T02:12:10;102702.97;;;10.08;100.00
53262;BME280;39658;51.090;-1.786;2023-05-19T02:14:40;102697.59;;;10.11;100.00
53262;BME280;39658;51.090;-1.786;2023-05-19T02:17:11;102694.91;;;10.13;100.00
53262;BME280;39658;51.090;-1.786;2023-05-19T02:19:40;102692.25;;;10.13;100.00
53262;BME280;39658;51.090;-1.786;2023-05-19T02:22:08;102684.31;;;10.14;100.00
53262;BME280;39658;51.090;-1.786;2023-05-19T02:24:35;102665.06;;;10.12;100.00
53262;BME280;39658;51.090;-1.786;2023-05-19T02:27:02;102661.72;;;10.07;100.00
53262;BME280;39658;51.090;-1.786;2023-05-19T02:29:29;102668.63;;;10.10;100.00
53262;BME280;39658;51.090;-1.786;2023-05-19T02:31:57;102667.88;;;10.06;100.00
53262;BME280;39658;51.090;-1.786;2023-05-19T02:34:24;102650.66;;;9.96;100.00
53262;BME280;39658;51.090;-1.786;2023-05-19T02:36:52;102642.63;;;9.99;100.00
53262;BME280;39658;51.090;-1.786;2023-05-19T02:39:20;102650.66;;;9.96;100.00
53262;BME280;39658;51.090;-1.786;2023-05-19T02:41:47;102632.25;;;9.94;100.00
53262;BME280;39658;51.090;-1.786;2023-05-19T02:44:14;102627.91;;;9.93;100.00
53262;BME280;39658;51.090;-1.786;2023-05-19T02:46:41;102628.88;;;9.91;100.00
53262;BME280;39658;51.090;-1.786;2023-05-19T02:49:07;102625.38;;;9.90;100.00
53262;BME280;39658;51.090;-1.786;2023-05-19T02:51:35;102626.22;;;9.91;100.00
53262;BME280;39658;51.090;-1.786;2023-05-19T02:54:03;102617.47;;;9.90;100.00
53262;BME280;39658;51.090;-1.786;2023-05-19T02:56:30;102597.41;;;9.86;100.00
53262;BME280;39658;51.090;-1.786;2023-05-19T02:58:57;102597.53;;;9.81;100.00
53262;BME280;39658;51.090;-1.786;2023-05-19T03:01:24;102585.50;;;9.74;100.00
53262;BME280;39658;51.090;-1.786;2023-05-19T03:03:50;102588.34;;;9.68;100.00
53262;BME280;39658;51.090;-1.786;2023-05-19T03:06:17;102583.97;;;9.67;100.00
53262;BME280;39658;51.090;-1.786;2023-05-19T03:08:44;102573.44;;;9.67;100.00
53262;BME280;39658;51.090;-1.786;2023-05-19T03:11:12;102568.16;;;9.67;100.00
53262;BME280;39658;51.090;-1.786;2023-05-19T03:13:39;102555.91;;;9.66;100.00
53262;BME280;39658;51.090;-1.786;2023-05-19T03:16:06;102540.19;;;9.63;100.00
53262;BME280;39658;51.090;-1.786;2023-05-19T03:18:33;102527.28;;;9.55;100.00
53262;BME280;39658;51.090;-1.786;2023-05-19T03:21:00;102526.59;;;9.50;100.00
53262;BME280;39658;51.090;-1.786;2023-05-19T03:23:27;102510.94;;;9.45;100.00
53262;BME280;39658;51.090;-1.786;2023-05-19T03:25:54;102495.28;;;9.41;100.00
53262;BME280;39658;51.090;-1.786;2023-05-19T03:28:22;102485.75;;;9.37;100.00
53262;BME280;39658;51.090;-1.786;2023-05-19T03:30:51;102472.69;;;9.33;100.00
53262;BME280;39658;51.090;-1.786;2023-05-19T03:33:18;102468.47;;;9.29;100.00
53262;BME280;39658;51.090;-1.786;2023-05-19T03:35:45;102456.34;;;9.24;100.00
53262;BME280;39658;51.090;-1.786;2023-05-19T03:38:12;102451.13;;;9.22;100.00
53262;BME280;39658;51.090;-1.786;2023-05-19T03:40:39;102442.44;;;9.20;100.00
53262;BME280;39658;51.090;-1.786;2023-05-19T03:43:06;102432.03;;;9.17;100.00
53262;BME280;39658;51.090;-1.786;2023-05-19T03:45:34;102415.34;;;9.16;100.00
53262;BME280;39658;51.090;-1.786;2023-05-19T03:48:01;102402.13;;;9.18;100.00
53262;BME280;39658;51.090;-1.786;2023-05-19T03:50:28;102389.88;;;9.19;100.00
53262;BME280;39658;51.090;-1.786;2023-05-19T03:52:55;102378.34;;;9.21;100.00
53262;BME280;39658;51.090;-1.786;2023-05-19T03:55:22;102365.25;;;9.20;100.00
53262;BME280;39658;51.090;-1.786;2023-05-19T03:57:50;102357.28;;;9.21;100.00
53262;BME280;39658;51.090;-1.786;2023-05-19T04:00:17;102338.81;;;9.23;100.00
53262;BME280;39658;51.090;-1.786;2023-05-19T04:02:45;102319.56;;;9.22;100.00
53262;BME280;39658;51.090;-1.786;2023-05-19T04:05:13;102322.19;;;9.22;100.00
53262;BME280;39658;51.090;-1.786;2023-05-19T04:07:39;102306.44;;;9.21;100.00
53262;BME280;39658;51.090;-1.786;2023-05-19T04:10:07;102303.88;;;9.19;100.00
53262;BME280;39658;51.090;-1.786;2023-05-19T04:12:34;102297.88;;;9.15;100.00
53262;BME280;39658;51.090;-1.786;2023-05-19T04:15:01;102300.53;;;9.14;100.00
53262;BME280;39658;51.090;-1.786;2023-05-19T04:17:28;102292.69;;;9.12;100.00
53262;BME280;39658;51.090;-1.786;2023-05-19T04:19:56;102288.22;;;9.14;100.00
53262;BME280;39658;51.090;-1.786;2023-05-19T04:22:23;102287.44;;;9.12;100.00
53262;BME280;39658;51.090;-1.786;2023-05-19T04:24:51;102282.97;;;9.14;100.00
53262;BME280;39658;51.090;-1.786;2023-05-19T04:27:18;102276.81;;;9.15;100.00
53262;BME280;39658;51.090;-1.786;2023-05-19T04:29:46;102274.91;;;9.19;100.00
53262;BME280;39658;51.090;-1.786;2023-05-19T04:32:14;102282.91;;;9.16;100.00
53262;BME280;39658;51.090;-1.786;2023-05-19T04:34:42;102277.66;;;9.16;100.00
53262;BME280;39658;51.090;-1.786;2023-05-19T04:37:11;102270.66;;;9.15;100.00
53262;BME280;39658;51.090;-1.786;2023-05-19T04:39:38;102267.25;;;9.13;100.00
53262;BME280;39658;51.090;-1.786;2023-05-19T04:42:07;102277.72;;;9.14;100.00
53262;BME280;39658;51.090;-1.786;2023-05-19T04:44:34;102265.47;;;9.13;100.00
53262;BME280;39658;51.090;-1.786;2023-05-19T04:47:02;102280.19;;;9.19;100.00
53262;BME280;39658;51.090;-1.786;2023-05-19T04:49:30;102268.69;;;9.22;100.00
53262;BME280;39658;51.090;-1.786;2023-05-19T04:51:57;102275.56;;;9.26;100.00
53262;BME280;39658;51.090;-1.786;2023-05-19T04:54:25;102280.66;;;9.30;100.00
53262;BME280;39658;51.090;-1.786;2023-05-19T04:56:52;102268.16;;;9.37;100.00
53262;BME280;39658;51.090;-1.786;2023-05-19T04:59:18;102265.25;;;9.45;100.00
53262;BME280;39658;51.090;-1.786;2023-05-19T05:01:45;102271.94;;;9.53;100.00
53262;BME280;39658;51.090;-1.786;2023-05-19T05:04:12;102275.16;;;9.62;100.00
53262;BME280;39658;51.090;-1.786;2023-05-19T05:06:39;102272.22;;;9.69;100.00
53262;BME280;39658;51.090;-1.786;2023-05-19T05:09:06;102282.53;;;9.76;100.00
53262;BME280;39658;51.090;-1.786;2023-05-19T05:11:36;102279.66;;;9.82;100.00
53262;BME280;39658;51.090;-1.786;2023-05-19T05:14:04;102277.72;;;9.87;100.00
53262;BME280;39658;51.090;-1.786;2023-05-19T05:16:31;102283.59;;;9.94;100.00
53262;BME280;39658;51.090;-1.786;2023-05-19T05:18:58;102303.59;;;9.99;100.00
53262;BME280;39658;51.090;-1.786;2023-05-19T05:21:26;102305.19;;;10.03;100.00
53262;BME280;39658;51.090;-1.786;2023-05-19T05:23:54;102313.84;;;10.07;100.00
53262;BME280;39658;51.090;-1.786;2023-05-19T05:26:21;102318.94;;;10.12;100.00
53262;BME280;39658;51.090;-1.786;2023-05-19T05:28:50;102316.25;;;10.13;100.00
53262;BME280;39658;51.090;-1.786;2023-05-19T05:31:16;102315.19;;;10.17;100.00
53262;BME280;39658;51.090;-1.786;2023-05-19T05:33:43;102315.06;;;10.20;100.00
53262;BME280;39658;51.090;-1.786;2023-05-19T05:36:10;102302.81;;;10.19;100.00
53262;BME280;39658;51.090;-1.786;2023-05-19T05:38:38;102308.94;;;10.20;100.00
53262;BME280;39658;51.090;-1.786;2023-05-19T05:41:04;102303.50;;;10.24;100.00
53262;BME280;39658;51.090;-1.786;2023-05-19T05:43:31;102298.88;;;10.30;100.00
53262;BME280;39658;51.090;-1.786;2023-05-19T05:45:59;102293.47;;;10.34;100.00
53262;BME280;39658;51.090;-1.786;2023-05-19T05:48:27;102286.19;;;10.41;100.00
53262;BME280;39658;51.090;-1.786;2023-05-19T05:50:55;102299.72;;;10.54;100.00
53262;BME280;39658;51.090;-1.786;2023-05-19T05:53:24;102286.16;;;10.63;100.00
53262;BME280;39658;51.090;-1.786;2023-05-19T05:55:51;102290.00;;;10.76;100.00
53262;BME280;39658;51.090;-1.786;2023-05-19T05:58:18;102298.34;;;10.88;100.00
53262;BME280;39658;51.090;-1.786;2023-05-19T06:00:45;102303.22;;;10.97;100.00
53262;BME280;39658;51.090;-1.786;2023-05-19T06:03:15;102319.41;;;11.10;100.00
53262;BME280;39658;51.090;-1.786;2023-05-19T06:05:42;102328.78;;;11.17;100.00
53262;BME280;39658;51.090;-1.786;2023-05-19T06:08:09;102333.81;;;11.23;100.00
53262;BME280;39658;51.090;-1.786;2023-05-19T06:10:35;102347.72;;;11.27;100.00
53262;BME280;39658;51.090;-1.786;2023-05-19T06:13:06;102362.22;;;11.37;100.00
53262;BME280;39658;51.090;-1.786;2023-05-19T06:15:32;102385.59;;;11.46;100.00
53262;BME280;39658;51.090;-1.786;2023-05-19T06:17:59;102389.63;;;11.55;100.00
53262;BME280;39658;51.090;-1.786;2023-05-19T06:20:27;102403.28;;;11.65;100.00
53262;BME280;39658;51.090;-1.786;2023-05-19T06:22:54;102407.19;;;11.77;100.00
53262;BME280;39658;51.090;-1.786;2023-05-19T06:25:21;102439.34;;;11.86;100.00
53262;BME280;39658;51.090;-1.786;2023-05-19T06:27:49;102462.81;;;11.94;100.00
53262;BME280;39658;51.090;-1.786;2023-05-19T06:30:15;102487.16;;;12.02;100.00
53262;BME280;39658;51.090;-1.786;2023-05-19T06:32:42;102512.25;;;12.13;100.00
53262;BME280;39658;51.090;-1.786;2023-05-19T06:35:10;102533.91;;;12.21;100.00
53262;BME280;39658;51.090;-1.786;2023-05-19T06:37:38;102557.38;;;12.29;100.00
53262;BME280;39658;51.090;-1.786;2023-05-19T06:40:06;102599.84;;;12.26;100.00
53262;BME280;39658;51.090;-1.786;2023-05-19T06:42:33;102624.78;;;12.41;100.00
53262;BME280;39658;51.090;-1.786;2023-05-19T06:45:00;102662.47;;;12.46;100.00
53262;BME280;39658;51.090;-1.786;2023-05-19T06:47:26;102686.13;;;12.49;100.00
53262;BME280;39658;51.090;-1.786;2023-05-19T06:49:53;102713.09;;;12.59;100.00
53262;BME280;39658;51.090;-1.786;2023-05-19T06:52:20;102731.41;;;12.63;100.00
53262;BME280;39658;51.090;-1.786;2023-05-19T06:54:49;102744.19;;;12.74;100.00
53262;BME280;39658;51.090;-1.786;2023-05-19T06:57:16;102749.75;;;12.88;100.00
53262;BME280;39658;51.090;-1.786;2023-05-19T06:59:42;102749.72;;;13.09;100.00
53262;BME280;39658;51.090;-1.786;2023-05-19T07:02:11;102756.91;;;13.26;100.00
53262;BME280;39658;51.090;-1.786;2023-05-19T07:04:38;102781.91;;;13.41;100.00
53262;BME280;39658;51.090;-1.786;2023-05-19T07:07:05;102801.75;;;13.51;100.00
53262;BME280;39658;51.090;-1.786;2023-05-19T07:09:32;102816.09;;;13.66;100.00
53262;BME280;39658;51.090;-1.786;2023-05-19T07:12:00;102807.25;;;13.65;100.00
53262;BME280;39658;51.090;-1.786;2023-05-19T07:14:27;102816.22;;;13.63;100.00
53262;BME280;39658;51.090;-1.786;2023-05-19T07:16:53;102820.59;;;13.64;100.00
53262;BME280;39658;51.090;-1.786;2023-05-19T07:19:20;102820.47;;;13.86;100.00
53262;BME280;39658;51.090;-1.786;2023-05-19T07:21:48;102828.38;;;13.88;100.00
53262;BME280;39658;51.090;-1.786;2023-05-19T07:24:15;102828.66;;;14.00;100.00
53262;BME280;39658;51.090;-1.786;2023-05-19T07:26:41;102844.06;;;14.11;100.00
53262;BME280;39658;51.090;-1.786;2023-05-19T07:29:09;102868.06;;;14.08;100.00
53262;BME280;39658;51.090;-1.786;2023-05-19T07:31:36;102878.69;;;13.89;100.00
53262;BME280;39658;51.090;-1.786;2023-05-19T07:34:03;102883.66;;;13.76;100.00
53262;BME280;39658;51.090;-1.786;2023-05-19T07:36:30;102862.78;;;13.89;100.00
53262;BME280;39658;51.090;-1.786;2023-05-19T07:38:57;102853.44;;;13.99;100.00
53262;BME280;39658;51.090;-1.786;2023-05-19T07:41:23;102854.94;;;14.05;100.00
53262;BME280;39658;51.090;-1.786;2023-05-19T07:43:50;102853.28;;;14.03;100.00
53262;BME280;39658;51.090;-1.786;2023-05-19T07:46:19;102865.91;;;14.16;100.00
53262;BME280;39658;51.090;-1.786;2023-05-19T07:48:46;102880.81;;;14.38;100.00
53262;BME280;39658;51.090;-1.786;2023-05-19T07:51:13;102872.81;;;14.57;100.00
53262;BME280;39658;51.090;-1.786;2023-05-19T07:53:40;102885.75;;;14.65;100.00
53262;BME280;39658;51.090;-1.786;2023-05-19T07:56:07;102898.06;;;14.85;100.00
53262;BME280;39658;51.090;-1.786;2023-05-19T07:58:34;102918.91;;;14.93;100.00
53262;BME280;39658;51.090;-1.786;2023-05-19T08:01:00;102933.47;;;15.03;100.00
53262;BME280;39658;51.090;-1.786;2023-05-19T08:03:29;102936.00;;;15.23;100.00
53262;BME280;39658;51.090;-1.786;2023-05-19T08:05:56;102959.91;;;15.41;100.00
53262;BME280;39658;51.090;-1.786;2023-05-19T08:08:22;102960.75;;;15.76;100.00
53262;BME280;39658;51.090;-1.786;2023-05-19T08:10:49;102960.41;;;16.00;100.00
53262;BME280;39658;51.090;-1.786;2023-05-19T08:13:16;102976.19;;;16.21;100.00
53262;BME280;39658;51.090;-1.786;2023-05-19T08:15:43;103005.00;;;16.46;100.00
53262;BME280;39658;51.090;-1.786;2023-05-19T08:18:10;103009.00;;;16.86;100.00
53262;BME280;39658;51.090;-1.786;2023-05-19T08:20:38;103030.72;;;17.27;100.00
53262;BME280;39658;51.090;-1.786;2023-05-19T08:23:05;103041.34;;;17.73;100.00
53262;BME280;39658;51.090;-1.786;2023-05-19T08:25:32;103042.09;;;18.05;100.00
53262;BME280;39658;51.090;-1.786;2023-05-19T08:27:58;103040.69;;;18.43;100.00
53262;BME280;39658;51.090;-1.786;2023-05-19T08:30:25;103080.34;;;18.63;100.00
53262;BME280;39658;51.090;-1.786;2023-05-19T08:32:52;103069.81;;;19.04;100.00
53262;BME280;39658;51.090;-1.786;2023-05-19T08:35:19;103084.56;;;19.24;100.00
53262;BME280;39658;51.090;-1.786;2023-05-19T08:37:47;103107.41;;;19.15;100.00
53262;BME280;39658;51.090;-1.786;2023-05-19T08:40:16;103104.25;;;19.23;100.00
53262;BME280;39658;51.090;-1.786;2023-05-19T08:42:43;103116.75;;;19.22;100.00
53262;BME280;39658;51.090;-1.786;2023-05-19T08:45:10;103117.09;;;18.89;100.00
53262;BME280;39658;51.090;-1.786;2023-05-19T08:47:37;103127.38;;;18.52;100.00
53262;BME280;39658;51.090;-1.786;2023-05-19T08:50:05;103138.72;;;18.26;100.00
53262;BME280;39658;51.090;-1.786;2023-05-19T08:52:40;103141.00;;;18.18;100.00
53262;BME280;39658;51.090;-1.786;2023-05-19T08:55:20;103141.34;;;17.98;100.00
53262;BME280;39658;51.090;-1.786;2023-05-19T08:57:52;103142.03;;;17.69;100.00
53262;BME280;39658;51.090;-1.786;2023-05-19T09:00:18;103138.78;;;17.64;100.00
53262;BME280;39658;51.090;-1.786;2023-05-19T09:02:48;103137.56;;;17.70;100.00
53262;BME280;39658;51.090;-1.786;2023-05-19T09:05:16;103139.81;;;17.62;100.00
53262;BME280;39658;51.090;-1.786;2023-05-19T09:07:43;103134.63;;;17.58;100.00
53262;BME280;39658;51.090;-1.786;2023-05-19T09:10:10;103140.94;;;17.57;100.00
53262;BME280;39658;51.090;-1.786;2023-05-19T09:12:41;103169.00;;;17.49;100.00
53262;BME280;39658;51.090;-1.786;2023-05-19T09:15:10;103159.88;;;17.53;100.00
53262;BME280;39658;51.090;-1.786;2023-05-19T09:17:37;103165.28;;;17.35;100.00
53262;BME280;39658;51.090;-1.786;2023-05-19T09:20:05;103160.75;;;17.37;100.00
53262;BME280;39658;51.090;-1.786;2023-05-19T09:22:42;103139.06;;;17.44;100.00
53262;BME280;39658;51.090;-1.786;2023-05-19T09:25:17;103106.34;;;17.56;100.00
53262;BME280;39658;51.090;-1.786;2023-05-19T09:27:47;103120.91;;;17.50;100.00
53262;BME280;39658;51.090;-1.786;2023-05-19T09:30:15;103142.41;;;17.47;100.00
53262;BME280;39658;51.090;-1.786;2023-05-19T09:32:43;103172.59;;;17.48;100.00
53262;BME280;39658;51.090;-1.786;2023-05-19T09:35:10;103153.13;;;17.62;100.00
53262;BME280;39658;51.090;-1.786;2023-05-19T09:37:41;103172.53;;;17.65;100.00
53262;BME280;39658;51.090;-1.786;2023-05-19T09:40:07;103168.63;;;17.87;100.00
53262;BME280;39658;51.090;-1.786;2023-05-19T09:42:36;103165.16;;;17.85;100.00
53262;BME280;39658;51.090;-1.786;2023-05-19T09:45:06;103181.25;;;17.83;100.00
53262;BME280;39658;51.090;-1.786;2023-05-19T09:47:34;103189.44;;;17.80;100.00
53262;BME280;39658;51.090;-1.786;2023-05-19T09:50:04;103196.84;;;17.91;100.00
53262;BME280;39658;51.090;-1.786;2023-05-19T09:52:33;103213.16;;;18.47;100.00
53262;BME280;39658;51.090;-1.786;2023-05-19T09:55:01;103206.78;;;19.50;100.00
53262;BME280;39658;51.090;-1.786;2023-05-19T09:57:32;103220.66;;;20.24;100.00
53262;BME280;39658;51.090;-1.786;2023-05-19T10:00:02;103200.47;;;20.72;100.00
53262;BME280;39658;51.090;-1.786;2023-05-19T10:02:36;103174.75;;;20.82;100.00
53262;BME280;39658;51.090;-1.786;2023-05-19T10:05:07;103174.28;;;21.01;100.00
53262;BME280;39658;51.090;-1.786;2023-05-19T10:07:34;103155.88;;;21.21;100.00
53262;BME280;39658;51.090;-1.786;2023-05-19T10:10:02;102959.25;;;21.43;100.00
53262;BME280;39658;51.090;-1.786;2023-05-19T10:12:30;102348.72;;;21.60;100.00
53262;BME280;39658;51.090;-1.786;2023-05-19T10:14:58;101460.13;;;21.63;100.00
53262;BME280;39658;51.090;-1.786;2023-05-19T10:17:25;101511.38;;;21.78;100.00
53262;BME280;39658;51.090;-1.786;2023-05-19T10:19:54;101576.38;;;22.08;100.00
53262;BME280;39658;51.090;-1.786;2023-05-19T10:22:22;101632.47;;;22.47;100.00
53262;BME280;39658;51.090;-1.786;2023-05-19T10:24:48;101734.28;;;22.76;100.00
53262;BME280;39658;51.090;-1.786;2023-05-19T10:27:15;101763.00;;;22.57;100.00
53262;BME280;39658;51.090;-1.786;2023-05-19T10:29:47;101783.09;;;22.45;100.00
53262;BME280;39658;51.090;-1.786;2023-05-19T10:32:18;101774.41;;;22.33;100.00
53262;BME280;39658;51.090;-1.786;2023-05-19T10:37:48;101779.88;;;22.14;100.00
53262;BME280;39658;51.090;-1.786;2023-05-19T10:40:20;101746.31;;;22.00;100.00
53262;BME280;39658;51.090;-1.786;2023-05-19T10:43:04;101763.91;;;21.66;100.00
53262;BME280;39658;51.090;-1.786;2023-05-19T10:45:37;101759.97;;;21.88;100.00
53262;BME280;39658;51.090;-1.786;2023-05-19T10:48:10;101775.81;;;22.10;100.00
53262;BME280;39658;51.090;-1.786;2023-05-19T10:50:36;101737.38;;;22.63;100.00
53262;BME280;39658;51.090;-1.786;2023-05-19T10:53:13;101761.41;;;22.29;100.00
53262;BME280;39658;51.090;-1.786;2023-05-19T10:55:49;101780.31;;;22.55;100.00
53262;BME280;39658;51.090;-1.786;2023-05-19T10:58:47;101701.94;;;23.12;100.00
53262;BME280;39658;51.090;-1.786;2023-05-19T11:01:15;101724.78;;;23.42;100.00
53262;BME280;39658;51.090;-1.786;2023-05-19T11:03:47;101759.50;;;22.57;100.00
53262;BME280;39658;51.090;-1.786;2023-05-19T11:06:27;101744.94;;;23.38;100.00
53262;BME280;39658;51.090;-1.786;2023-05-19T11:09:00;101730.50;;;23.47;100.00
53262;BME280;39658;51.090;-1.786;2023-05-19T11:11:43;101758.88;;;23.68;100.00
53262;BME280;39658;51.090;-1.786;2023-05-19T11:14:11;101768.03;;;22.97;100.00
53262;BME280;39658;51.090;-1.786;2023-05-19T11:16:39;101757.72;;;21.84;100.00
53262;BME280;39658;51.090;-1.786;2023-05-19T11:19:07;101708.44;;;22.21;100.00
53262;BME280;39658;51.090;-1.786;2023-05-19T11:21:41;101739.81;;;22.74;100.00
53262;BME280;39658;51.090;-1.786;2023-05-19T11:24:33;101703.09;;;23.44;100.00
53262;BME280;39658;51.090;-1.786;2023-05-19T11:27:18;101754.59;;;22.97;100.00
53262;BME280;39658;51.090;-1.786;2023-05-19T11:29:45;101750.69;;;22.47;100.00
53262;BME280;39658;51.090;-1.786;2023-05-19T11:32:13;101728.47;;;21.63;100.00
53262;BME280;39658;51.090;-1.786;2023-05-19T11:34:40;101685.59;;;20.78;100.00
53262;BME280;39658;51.090;-1.786;2023-05-19T11:37:07;101674.47;;;20.24;100.00
53262;BME280;39658;51.090;-1.786;2023-05-19T11:39:35;101646.59;;;19.87;100.00
53262;BME280;39658;51.090;-1.786;2023-05-19T11:42:03;101599.06;;;19.60;100.00
53262;BME280;39658;51.090;-1.786;2023-05-19T11:44:30;101561.19;;;19.45;100.00
53262;BME280;39658;51.090;-1.786;2023-05-19T11:46:57;101525.00;;;19.31;100.00
53262;BME280;39658;51.090;-1.786;2023-05-19T11:49:26;101496.28;;;19.24;100.00
53262;BME280;39658;51.090;-1.786;2023-05-19T11:51:53;101466.84;;;19.14;100.00
53262;BME280;39658;51.090;-1.786;2023-05-19T11:54:20;101434.22;;;19.00;100.00
53262;BME280;39658;51.090;-1.786;2023-05-19T11:56:48;101405.91;;;18.78;100.00
53262;BME280;39658;51.090;-1.786;2023-05-19T11:59:15;101341.22;;;18.65;100.00
53262;BME280;39658;51.090;-1.786;2023-05-19T12:01:42;101326.16;;;18.44;100.00
53262;BME280;39658;51.090;-1.786;2023-05-19T12:04:09;101272.44;;;18.28;100.00
53262;BME280;39658;51.090;-1.786;2023-05-19T12:06:36;101266.41;;;18.26;100.00
53262;BME280;39658;51.090;-1.786;2023-05-19T12:09:04;101274.28;;;18.37;100.00
53262;BME280;39658;51.090;-1.786;2023-05-19T12:11:30;101240.16;;;18.60;100.00
53262;BME280;39658;51.090;-1.786;2023-05-19T12:14:00;101267.53;;;19.11;100.00
53262;BME280;39658;51.090;-1.786;2023-05-19T12:16:33;101326.41;;;19.49;100.00
53262;BME280;39658;51.090;-1.786;2023-05-19T12:19:00;101321.19;;;19.95;100.00
53262;BME280;39658;51.090;-1.786;2023-05-19T12:21:26;101351.75;;;20.30;100.00
53262;BME280;39658;51.090;-1.786;2023-05-19T12:23:54;101409.47;;;20.42;100.00
53262;BME280;39658;51.090;-1.786;2023-05-19T12:26:21;101399.28;;;20.73;100.00
53262;BME280;39658;51.090;-1.786;2023-05-19T12:28:48;101361.38;;;20.86;100.00
53262;BME280;39658;51.090;-1.786;2023-05-19T12:31:19;101438.88;;;20.79;100.00
53262;BME280;39658;51.090;-1.786;2023-05-19T12:33:48;101485.53;;;20.49;100.00
53262;BME280;39658;51.090;-1.786;2023-05-19T12:36:16;101492.03;;;19.99;100.00
53262;BME280;39658;51.090;-1.786;2023-05-19T12:38:43;101417.06;;;19.52;100.00
53262;BME280;39658;51.090;-1.786;2023-05-19T12:41:10;101365.16;;;19.15;100.00
53262;BME280;39658;51.090;-1.786;2023-05-19T12:43:38;101360.31;;;18.70;100.00